Time;durP1;ratioP1;P1;durP2;ratioP2;P2;SDS_P1;SDS_P2;PMS_P1;PMS_P2;Temp;Humidity;BMP_temperature;BMP_pressure;BME280_temperature;BME280_humidity;BME280_pressure;Samples;Min_cycle;Max_cycle;Signal;HPM_P1;HPM_P2
2021/05/28 00:00:09;;;;;;;9.82;5.00;;;;;;;9.44;77.08;102496.84;693610;28;1080;-60
2021/05/28 00:00:29;;;;;;;9.75;4.57;;;;;;;9.45;76.65;102495.94;693587;28;947;-60
2021/05/28 00:00:49;;;;;;;6.65;4.47;;;;;;;9.45;76.84;102501.22;693551;28;1010;-61
2021/05/28 00:01:10;;;;;;;7.83;4.53;;;;;;;9.44;76.97;102499.47;693595;28;852;-60
2021/05/28 00:01:30;;;;;;;7.75;4.45;;;;;;;9.42;77.04;102501.25;693530;28;951;-61
2021/05/28 00:01:50;;;;;;;8.10;4.50;;;;;;;9.40;76.97;102503.03;693272;28;1538;-60
2021/05/28 00:02:11;;;;;;;7.03;4.30;;;;;;;9.39;77.36;102502.13;693657;28;902;-61
2021/05/28 00:02:31;;;;;;;6.53;4.30;;;;;;;9.40;77.03;102501.28;693611;28;898;-60
2021/05/28 00:02:51;;;;;;;6.80;4.30;;;;;;;9.45;76.99;102502.06;693259;28;1511;-60
2021/05/28 00:03:11;;;;;;;7.27;4.70;;;;;;;9.46;77.16;102503.84;693629;28;863;-60
2021/05/28 00:03:32;;;;;;;8.13;4.65;;;;;;;9.47;77.05;102505.59;693613;28;845;-59
2021/05/28 00:03:52;;;;;;;7.53;4.40;;;;;;;9.47;77.25;102508.22;693254;28;1914;-59
2021/05/28 00:04:12;;;;;;;9.20;4.70;;;;;;;9.47;77.21;102505.59;693576;28;1236;-60
2021/05/28 00:04:33;;;;;;;7.93;4.60;;;;;;;9.46;77.36;102502.94;693576;28;1041;-59
2021/05/28 00:04:53;;;;;;;8.37;4.90;;;;;;;9.43;77.30;102503.88;693449;28;1014;-60
2021/05/28 00:05:14;;;;;;;7.40;4.75;;;;;;;9.43;77.30;102500.38;693417;28;1242;-60
2021/05/28 00:05:34;;;;;;;8.53;4.70;;;;;;;9.39;77.53;102504.75;693431;28;836;-60
2021/05/28 00:05:55;;;;;;;8.73;4.78;;;;;;;9.39;77.28;102504.75;693687;28;872;-60
2021/05/28 00:06:15;;;;;;;7.77;4.90;;;;;;;9.41;77.45;102497.75;693712;28;821;-60
2021/05/28 00:06:35;;;;;;;7.05;4.57;;;;;;;9.40;77.15;102503.03;693445;28;1037;-60
2021/05/28 00:06:56;;;;;;;8.47;5.10;;;;;;;9.36;77.63;102499.56;693540;28;971;-59
2021/05/28 00:07:16;;;;;;;8.77;5.27;;;;;;;9.33;77.79;102506.63;693651;28;884;-60
2021/05/28 00:07:36;;;;;;;9.23;4.90;;;;;;;9.36;77.49;102502.19;693249;28;1484;-60
2021/05/28 00:07:56;;;;;;;8.70;5.00;;;;;;;9.38;77.60;102502.16;693577;28;1042;-60
2021/05/28 00:08:17;;;;;;;9.30;5.13;;;;;;;9.40;77.52;102501.28;693595;28;907;-60
2021/05/28 00:08:37;;;;;;;9.15;5.10;;;;;;;9.42;77.16;102507.38;693029;28;888;-60
2021/05/28 00:09:00;;;;;;;8.63;4.90;;;;;;;9.42;77.24;102499.47;692737;28;1259;-60
2021/05/28 00:09:20;;;;;;;8.23;4.88;;;;;;;9.41;77.29;102497.75;693526;28;1097;-59
2021/05/28 00:09:41;;;;;;;8.30;5.15;;;;;;;9.41;77.26;102497.75;693565;28;1074;-60
2021/05/28 00:10:01;;;;;;;8.30;4.73;;;;;;;9.44;77.54;102505.59;693538;28;1013;-60
2021/05/28 00:10:21;;;;;;;7.80;4.63;;;;;;;9.44;76.98;102505.59;693647;28;986;-59
2021/05/28 00:10:43;;;;;;;9.48;5.05;;;;;;;9.48;76.92;102507.31;693448;28;1305;-60
2021/05/28 00:11:03;;;;;;;8.43;5.30;;;;;;;9.50;77.26;102502.06;693603;28;900;-60
2021/05/28 00:11:23;;;;;;;7.50;4.90;;;;;;;9.48;76.98;102499.41;693501;28;979;-59
2021/05/28 00:11:44;;;;;;;8.60;5.00;;;;;;;9.47;77.28;102499.44;693648;28;863;-60
2021/05/28 00:12:04;;;;;;;8.37;5.10;;;;;;;9.48;77.43;102509.06;693509;28;959;-60
2021/05/28 00:12:25;;;;;;;7.82;4.90;;;;;;;9.48;77.43;102502.06;693651;28;808;-60
2021/05/28 00:12:45;;;;;;;9.57;4.72;;;;;;;9.50;77.11;102504.69;693508;28;879;-60
2021/05/28 00:13:06;;;;;;;7.90;4.90;;;;;;;9.43;77.38;102503.88;693583;28;927;-59
2021/05/28 00:13:26;;;;;;;9.05;5.13;;;;;;;9.46;77.24;102498.59;693257;28;1598;-59
2021/05/28 00:13:48;;;;;;;8.10;4.80;;;;;;;9.45;77.14;102495.94;693523;28;812;-60
2021/05/28 00:14:09;;;;;;;7.65;4.70;;;;;;;9.49;76.95;102502.91;693459;28;1756;-60
2021/05/28 00:14:29;;;;;;;7.95;4.50;;;;;;;9.52;77.00;102508.16;693630;28;901;-59
2021/05/28 00:14:49;;;;;;;7.53;4.60;;;;;;;9.53;77.05;102504.63;693476;28;978;-60
2021/05/28 00:15:12;;;;;;;7.57;4.60;;;;;;;9.51;76.84;102499.38;693630;28;876;-59
2021/05/28 00:15:33;;;;;;;8.77;4.93;;;;;;;9.43;76.74;102498.59;693388;28;900;-59
2021/05/28 00:15:53;;;;;;;7.55;4.85;;;;;;;9.41;76.90;102500.38;693633;28;891;-59
2021/05/28 00:16:14;;;;;;;7.38;4.60;;;;;;;9.36;76.98;102501.28;693576;28;1218;-59
2021/05/28 00:16:36;;;;;;;8.63;5.00;;;;;;;9.29;76.93;102500.53;693551;28;978;-59
2021/05/28 00:16:56;;;;;;;9.18;4.85;;;;;;;9.25;77.00;102498.78;692695;28;1456;-59
2021/05/28 00:17:16;;;;;;;7.70;4.60;;;;;;;9.27;77.16;102499.66;693620;28;784;-59
2021/05/28 00:17:37;;;;;;;8.27;4.93;;;;;;;9.26;76.88;102500.53;693476;28;851;-60
2021/05/28 00:18:21;;;;;;;8.00;5.18;;;;;;;9.31;77.17;102503.13;693510;28;863;-60
2021/05/28 00:18:41;;;;;;;8.98;5.10;;;;;;;9.26;76.85;102504.03;684965;28;1414;-59
2021/05/28 00:20:18;;;;;;;8.40;4.80;;;;;;;9.31;76.88;102497.84;693530;28;916;-60
2021/05/28 00:20:38;;;;;;;7.63;4.80;;;;;;;9.31;77.17;102497.84;693599;28;871;-60
2021/05/28 00:20:59;;;;;;;6.70;4.78;;;;;;;9.30;77.17;102502.25;693524;28;994;-59
2021/05/28 00:21:19;;;;;;;7.63;4.90;;;;;;;9.28;76.99;102504.00;693577;28;732;-59
2021/05/28 00:21:39;;;;;;;9.10;5.22;;;;;;;9.29;76.75;102500.53;693318;28;1573;-59
2021/05/28 00:22:00;;;;;;;9.70;5.13;;;;;;;9.28;76.95;102501.38;693514;28;895;-59
2021/05/28 00:22:21;;;;;;;9.70;5.17;;;;;;;9.24;77.20;102507.56;693609;28;836;-59
2021/05/28 00:22:43;;;;;;;7.68;4.90;;;;;;;9.26;76.97;102505.81;693910;28;911;-59
2021/05/28 00:23:03;;;;;;;8.45;5.18;;;;;;;9.28;77.02;102504.00;694526;28;899;-59
2021/05/28 00:23:23;;;;;;;7.28;5.20;;;;;;;9.28;77.10;102504.00;694632;28;859;-59
2021/05/28 00:23:44;;;;;;;7.97;5.20;;;;;;;9.31;76.75;102508.38;694095;28;1891;-59
2021/05/28 00:24:05;;;;;;;9.27;4.83;;;;;;;9.30;77.04;102507.50;694044;28;1495;-58
2021/05/28 00:24:25;;;;;;;8.63;4.63;;;;;;;9.28;76.64;102504.88;694210;28;1468;-59
2021/05/28 00:24:46;;;;;;;8.50;4.90;;;;;;;9.30;77.00;102506.66;694069;28;851;-60
2021/05/28 00:25:07;;;;;;;7.57;4.90;;;;;;;9.31;76.89;102504.00;694568;28;1029;-59
2021/05/28 00:25:29;;;;;;;7.55;4.82;;;;;;;9.32;76.84;102508.34;694411;28;904;-60
2021/05/28 00:25:49;;;;;;;8.48;4.90;;;;;;;9.32;76.69;102500.47;694253;28;1480;-60
2021/05/28 00:26:10;;;;;;;8.03;4.63;;;;;;;9.33;76.93;102504.84;694545;28;1005;-60
2021/05/28 00:26:30;;;;;;;7.28;5.00;;;;;;;9.32;76.72;102505.72;694278;28;855;-60
2021/05/28 00:26:53;;;;;;;9.30;4.97;;;;;;;9.32;76.83;102510.97;693859;28;1033;-60
2021/05/28 00:27:14;;;;;;;8.18;5.30;;;;;;;9.28;76.86;102504.00;693676;28;1018;-61
2021/05/28 00:27:34;;;;;;;8.38;4.90;;;;;;;9.28;76.98;102504.88;693619;28;875;-59
2021/05/28 00:27:54;;;;;;;8.07;5.10;;;;;;;9.28;76.89;102504.88;693585;28;996;-60
2021/05/28 00:28:15;;;;;;;9.57;5.50;;;;;;;9.22;76.89;102498.81;693616;28;1029;-60
2021/05/28 00:28:35;;;;;;;8.57;5.23;;;;;;;9.25;76.93;102504.91;693216;28;911;-60
2021/05/28 00:28:57;;;;;;;9.50;5.30;;;;;;;9.26;77.22;102504.03;693598;28;895;-60
2021/05/28 00:29:26;;;;;;;8.43;5.00;;;;;;;9.21;76.58;102500.56;693570;28;1248;-59
2021/05/28 00:29:47;;;;;;;8.32;5.18;;;;;;;9.25;76.72;102507.53;693575;28;1077;-60
2021/05/28 00:30:07;;;;;;;8.30;5.10;;;;;;;9.26;76.59;102511.06;693391;28;859;-60
2021/05/28 00:30:28;;;;;;;9.32;5.65;;;;;;;9.24;76.53;102507.56;693620;28;867;-60
2021/05/28 00:30:48;;;;;;;8.97;5.60;;;;;;;9.26;76.63;102505.81;693645;28;937;-60
2021/05/28 00:31:08;;;;;;;9.00;5.50;;;;;;;9.23;76.73;102509.34;694621;28;1538;-60
2021/05/28 00:31:28;;;;;;;8.07;5.13;;;;;;;9.23;76.96;102505.84;695184;28;1081;-59
2021/05/28 00:31:55;;;;;;;7.57;5.10;;;;;;;9.21;76.84;102503.19;695148;28;978;-60
2021/05/28 00:32:15;;;;;;;7.32;5.03;;;;;;;9.24;76.72;102512.81;694998;28;812;-60
2021/05/28 00:32:36;;;;;;;8.03;5.40;;;;;;;9.26;76.81;102505.81;695054;28;958;-61
2021/05/28 00:32:56;;;;;;;8.45;5.50;;;;;;;9.23;76.77;102511.09;695010;28;894;-59
2021/05/28 00:33:16;;;;;;;9.87;5.50;;;;;;;9.22;76.73;102514.59;694897;28;1038;-59
2021/05/28 00:33:37;;;;;;;9.68;5.95;;;;;;;9.20;76.79;102508.50;694880;28;963;-59
2021/05/28 00:33:57;;;;;;;8.90;6.07;;;;;;;9.22;76.52;102511.97;694691;28;1538;-61
2021/05/28 00:34:20;;;;;;;9.80;5.97;;;;;;;9.19;76.77;102514.66;694070;28;1216;-59
2021/05/28 00:34:40;;;;;;;9.38;5.78;;;;;;;9.24;76.73;102510.19;694456;28;887;-59
2021/05/28 00:35:03;;;;;;;8.37;5.60;;;;;;;9.27;76.48;102512.81;694372;28;894;-60
2021/05/28 00:35:24;;;;;;;9.35;6.13;;;;;;;9.20;76.76;102511.13;693822;28;932;-60
2021/05/28 00:35:44;;;;;;;9.70;5.97;;;;;;;9.21;76.56;102512.84;693559;28;1006;-59
2021/05/28 00:36:04;;;;;;;9.93;5.82;;;;;;;9.26;76.71;102511.06;693638;28;911;-59
2021/05/28 00:36:25;;;;;;;8.73;6.00;;;;;;;9.28;76.44;102514.53;693378;28;986;-60
2021/05/28 00:36:48;;;;;;;9.00;6.50;;;;;;;9.26;76.87;102511.94;693624;28;910;-59
2021/05/28 00:37:08;;;;;;;9.73;6.30;;;;;;;9.23;77.01;102511.09;693488;28;1532;-60
2021/05/28 00:37:28;;;;;;;9.70;6.40;;;;;;;9.23;76.87;102511.97;693243;28;1523;-60
2021/05/28 00:37:49;;;;;;;8.77;5.90;;;;;;;9.23;76.96;102516.34;693620;28;954;-59
2021/05/28 00:38:12;;;;;;;10.15;6.25;;;;;;;9.20;77.11;102512.00;693645;28;847;-60
2021/05/28 00:38:32;;;;;;;9.45;6.35;;;;;;;9.20;77.20;102511.13;693120;28;879;-60
2021/05/28 00:38:53;;;;;;;8.43;6.00;;;;;;;9.21;76.91;102512.84;693513;28;1326;-60
2021/05/28 00:39:13;;;;;;;7.97;5.93;;;;;;;9.16;77.07;102519.94;693502;28;890;-59
2021/05/28 00:39:36;;;;;;;9.13;6.30;;;;;;;9.10;77.01;102514.72;693319;28;868;-59
2021/05/28 00:39:57;;;;;;;10.35;6.38;;;;;;;9.11;76.93;102511.19;693425;28;935;-60
2021/05/28 00:40:23;;;;;;;10.03;6.10;;;;;;;9.14;76.99;102513.81;693296;28;887;-59
2021/05/28 00:40:43;;;;;;;9.60;6.20;;;;;;;9.13;77.05;102514.69;693299;28;1030;-60
2021/05/28 00:41:04;;;;;;;10.40;6.37;;;;;;;9.18;76.96;102512.88;693356;28;835;-60
2021/05/28 00:41:25;;;;;;;9.60;6.32;;;;;;;9.15;76.98;102505.00;693300;28;1487;-59
2021/05/28 00:41:45;;;;;;;9.40;6.90;;;;;;;9.15;76.70;102512.91;693626;28;804;-60
2021/05/28 00:42:08;;;;;;;9.40;6.67;;;;;;;9.16;76.72;102504.16;693545;28;931;-60
2021/05/28 00:42:28;;;;;;;10.25;6.90;;;;;;;9.12;77.12;102508.56;693518;28;957;-60
2021/05/28 00:42:48;;;;;;;11.02;7.38;;;;;;;9.12;76.59;102508.56;693482;28;891;-60
2021/05/28 00:43:08;;;;;;;10.80;7.40;;;;;;;9.14;76.90;102517.31;693280;28;1084;-60
2021/05/28 00:43:29;;;;;;;9.53;7.57;;;;;;;9.15;76.99;102512.91;693665;28;907;-61
2021/05/28 00:43:49;;;;;;;9.40;7.22;;;;;;;9.18;76.91;102512.88;693428;28;1957;-61
2021/05/28 00:44:10;;;;;;;9.53;6.90;;;;;;;9.14;76.82;102505.91;693288;28;1475;-60
2021/05/28 00:44:35;;;;;;;10.38;7.20;;;;;;;9.09;77.03;102510.34;693452;28;1097;-60
2021/05/28 00:44:55;;;;;;;10.07;6.47;;;;;;;9.11;76.92;102512.06;693534;28;974;-60
2021/05/28 00:45:16;;;;;;;9.47;6.70;;;;;;;9.14;77.15;102512.03;693545;28;950;-60
2021/05/28 00:45:36;;;;;;;10.38;7.15;;;;;;;9.13;76.75;102512.06;693518;28;879;-60
2021/05/28 00:45:59;;;;;;;10.23;7.50;;;;;;;9.14;76.95;102511.16;693581;28;903;-61
2021/05/28 00:46:21;;;;;;;8.52;7.20;;;;;;;9.12;76.99;102507.66;693524;28;895;-60
2021/05/28 00:46:41;;;;;;;9.80;7.20;;;;;;;9.13;77.02;102504.19;693450;28;1016;-60
2021/05/28 00:47:02;;;;;;;10.90;7.63;;;;;;;9.12;77.00;102512.94;693527;28;812;-60
2021/05/28 00:47:22;;;;;;;11.23;7.93;;;;;;;9.09;77.18;102502.47;693451;28;879;-60
2021/05/28 00:47:43;;;;;;;11.15;7.85;;;;;;;9.12;77.25;102502.41;693582;28;807;-60
2021/05/28 00:48:04;;;;;;;10.60;7.35;;;;;;;9.13;76.86;102499.78;693164;28;1049;-60
2021/05/28 00:48:25;;;;;;;9.15;7.50;;;;;;;9.11;76.97;102505.94;692912;28;1410;-60
2021/05/28 00:48:48;;;;;;;10.05;7.80;;;;;;;9.06;77.39;102508.63;693050;28;909;-60
2021/05/28 00:49:08;;;;;;;11.75;7.90;;;;;;;9.02;77.53;102507.78;693255;28;843;-60
2021/05/28 00:49:29;;;;;;;10.23;7.70;;;;;;;8.99;77.39;102501.69;693306;28;1041;-60
2021/05/28 00:49:52;;;;;;;10.80;7.77;;;;;;;9.01;77.66;102503.38;693324;28;919;-60
2021/05/28 00:50:13;;;;;;;9.95;7.65;;;;;;;9.01;77.56;102506.00;693325;28;1100;-60
2021/05/28 00:50:33;;;;;;;11.68;7.88;;;;;;;8.99;77.55;102505.16;693627;28;855;-60
2021/05/28 00:50:53;;;;;;;10.97;7.77;;;;;;;8.99;77.27;102501.69;693315;28;868;-60
2021/05/28 00:51:14;;;;;;;10.02;7.80;;;;;;;8.99;77.08;102504.31;693541;28;796;-60
2021/05/28 00:51:34;;;;;;;9.90;7.83;;;;;;;8.98;77.30;102499.91;693590;28;892;-60
2021/05/28 00:51:57;;;;;;;10.00;7.72;;;;;;;8.96;77.11;102505.19;693495;28;895;-60
2021/05/28 00:52:18;;;;;;;10.85;7.85;;;;;;;8.93;77.28;102497.31;693486;28;1105;-60
2021/05/28 00:52:39;;;;;;;10.88;7.88;;;;;;;8.89;77.39;102500.00;693555;28;883;-60
2021/05/28 00:53:00;;;;;;;9.57;7.87;;;;;;;8.86;77.70;102498.28;693317;28;957;-60
2021/05/28 00:53:24;;;;;;;11.27;7.93;;;;;;;8.87;77.38;102496.50;693538;28;1003;-61
2021/05/28 00:53:45;;;;;;;11.60;8.07;;;;;;;8.85;77.68;102498.28;693444;28;914;-59
2021/05/28 00:54:05;;;;;;;10.00;7.70;;;;;;;8.84;77.76;102496.53;692909;28;1511;-60
2021/05/28 00:54:26;;;;;;;10.13;7.80;;;;;;;8.83;77.70;102497.41;693521;28;1046;-60
2021/05/28 00:54:52;;;;;;;10.43;8.07;;;;;;;8.82;77.54;102491.28;693440;28;1057;-60
2021/05/28 00:55:13;;;;;;;11.13;7.78;;;;;;;8.85;77.91;102495.66;693475;28;896;-60
2021/05/28 00:55:33;;;;;;;12.65;8.45;;;;;;;8.76;77.84;102488.72;693553;28;867;-60
2021/05/28 00:55:55;;;;;;;11.43;8.90;;;;;;;8.80;77.77;102493.91;693566;28;958;-60
2021/05/28 00:56:16;;;;;;;10.77;9.05;;;;;;;8.79;77.91;102489.56;693546;28;861;-60
2021/05/28 00:56:38;;;;;;;12.07;9.10;;;;;;;8.80;77.92;102488.66;693415;28;1030;-60
2021/05/28 00:57:01;;;;;;;13.90;9.13;;;;;;;8.79;77.67;102489.56;693469;28;942;-60
2021/05/28 00:57:23;;;;;;;11.68;9.20;;;;;;;8.76;78.08;102492.19;693357;28;814;-60
2021/05/28 00:57:44;;;;;;;11.80;8.70;;;;;;;8.75;78.03;102492.22;693591;28;855;-60
2021/05/28 00:58:04;;;;;;;13.13;9.07;;;;;;;8.72;78.07;102492.25;693530;28;903;-60
2021/05/28 00:58:25;;;;;;;12.90;9.25;;;;;;;8.70;78.29;102488.75;692976;28;1495;-59
2021/05/28 00:59:00;;;;;;;11.63;8.90;;;;;;;8.68;78.53;102490.53;693334;28;821;-60
2021/05/28 00:59:21;;;;;;;10.88;8.75;;;;;;;8.66;78.30;102494.91;693311;28;941;-60
2021/05/28 00:59:56;;;;;;;10.77;8.68;;;;;;;8.67;78.21;102491.41;693558;28;843;-60
2021/05/28 01:00:19;;;;;;;11.80;8.63;;;;;;;8.69;78.40;102489.66;693352;28;1013;-60
2021/05/28 01:00:42;;;;;;;11.65;8.52;;;;;;;8.71;78.11;102490.53;693662;28;883;-60
2021/05/28 01:01:02;;;;;;;12.52;9.07;;;;;;;8.68;78.56;102496.66;693374;28;828;-60
2021/05/28 01:01:25;;;;;;;11.37;8.60;;;;;;;8.67;78.48;102488.78;693418;28;1022;-60
2021/05/28 01:01:47;;;;;;;11.38;8.70;;;;;;;8.66;78.35;102492.28;693532;28;954;-60
2021/05/28 01:02:07;;;;;;;11.55;8.90;;;;;;;8.67;78.33;102494.94;693570;28;845;-60
2021/05/28 01:02:27;;;;;;;12.20;9.13;;;;;;;8.68;78.20;102491.41;693528;28;824;-60
2021/05/28 01:02:47;;;;;;;12.27;8.90;;;;;;;8.65;78.57;102491.44;693509;28;860;-59
2021/05/28 01:03:08;;;;;;;11.53;9.07;;;;;;;8.66;78.67;102497.56;693466;28;1006;-60
2021/05/28 01:03:28;;;;;;;11.53;9.20;;;;;;;8.62;78.85;102491.44;693460;28;780;-60
2021/05/28 01:03:48;;;;;;;11.05;9.25;;;;;;;8.58;78.96;102494.13;693361;28;1918;-60
2021/05/28 01:04:09;;;;;;;11.43;9.00;;;;;;;8.56;78.92;102494.97;693008;28;1571;-59
2021/05/28 01:04:30;;;;;;;11.48;9.00;;;;;;;8.61;78.58;102494.09;693378;28;1535;-60
2021/05/28 01:04:50;;;;;;;12.40;9.07;;;;;;;8.60;78.85;102497.59;693569;28;857;-60
2021/05/28 01:05:11;;;;;;;12.25;8.98;;;;;;;8.61;78.66;102494.09;693449;28;1026;-59
2021/05/28 01:05:32;;;;;;;11.38;8.90;;;;;;;8.65;78.56;102495.81;693326;28;962;-60
2021/05/28 01:05:52;;;;;;;11.65;8.98;;;;;;;8.64;78.92;102496.72;693641;28;824;-60
2021/05/28 01:06:12;;;;;;;13.27;9.00;;;;;;;8.61;78.85;102501.97;693564;28;971;-60
2021/05/28 01:06:34;;;;;;;11.53;8.73;;;;;;;8.65;78.58;102501.06;693469;28;988;-59
2021/05/28 01:06:54;;;;;;;11.15;9.23;;;;;;;8.62;78.54;102496.69;693534;28;895;-60
2021/05/28 01:07:15;;;;;;;12.70;8.80;;;;;;;8.55;78.61;102501.13;693499;28;1201;-59
2021/05/28 01:07:35;;;;;;;12.38;9.05;;;;;;;8.54;78.77;102496.75;693086;28;1503;-60
2021/05/28 01:07:55;;;;;;;12.50;9.57;;;;;;;8.51;78.83;102499.41;693529;28;1058;-60
2021/05/28 01:08:18;;;;;;;12.70;9.00;;;;;;;8.50;78.73;102497.69;693495;28;908;-59
2021/05/28 01:08:41;;;;;;;11.95;9.05;;;;;;;8.50;78.87;102500.31;693033;28;955;-60
2021/05/28 01:09:03;;;;;;;12.55;9.75;;;;;;;8.47;78.91;102500.31;693205;28;1496;-60
2021/05/28 01:09:23;;;;;;;11.95;9.48;;;;;;;8.49;78.72;102495.91;693497;28;1035;-60
2021/05/28 01:09:44;;;;;;;12.77;9.98;;;;;;;8.46;78.87;102501.19;693431;28;917;-60
2021/05/28 01:10:04;;;;;;;12.90;9.60;;;;;;;8.43;79.05;102505.59;693384;28;830;-60
2021/05/28 01:10:25;;;;;;;12.07;9.48;;;;;;;8.42;79.13;102499.47;693531;28;875;-59
2021/05/28 01:10:51;;;;;;;12.20;9.23;;;;;;;8.38;79.18;102503.00;693379;28;1684;-60
2021/05/28 01:11:14;;;;;;;12.50;9.98;;;;;;;8.37;79.33;102500.34;693421;28;1026;-60
2021/05/28 01:11:36;;;;;;;12.73;9.88;;;;;;;8.32;79.23;102503.00;693470;28;836;-59
2021/05/28 01:11:56;;;;;;;11.55;9.68;;;;;;;8.32;79.63;102497.75;693422;28;930;-60
2021/05/28 01:12:17;;;;;;;12.73;10.00;;;;;;;8.30;79.23;102496.91;693651;28;867;-59
2021/05/28 01:12:37;;;;;;;12.05;9.77;;;;;;;8.30;79.45;102502.16;693181;28;1539;-59
2021/05/28 01:13:16;;;;;;;13.17;9.83;;;;;;;8.33;79.50;102502.13;693549;28;860;-59
2021/05/28 01:13:36;;;;;;;11.75;9.15;;;;;;;8.35;79.44;102502.97;693416;28;844;-59
2021/05/28 01:13:57;;;;;;;11.87;9.53;;;;;;;8.36;79.35;102504.72;693646;28;930;-59
2021/05/28 01:14:17;;;;;;;11.75;10.05;;;;;;;8.35;79.15;102497.72;693357;28;1442;-59
2021/05/28 01:14:38;;;;;;;12.88;10.20;;;;;;;8.34;79.29;102496.00;693446;28;1467;-59
2021/05/28 01:14:59;;;;;;;14.80;10.00;;;;;;;8.36;79.26;102499.47;693508;28;930;-59
2021/05/28 01:15:19;;;;;;;13.00;10.10;;;;;;;8.36;79.04;102496.84;693580;28;896;-60
2021/05/28 01:15:43;;;;;;;11.93;9.90;;;;;;;8.30;79.21;102502.16;693467;28;871;-61
2021/05/28 01:16:04;;;;;;;12.38;9.77;;;;;;;8.33;79.47;102496.88;693524;28;864;-60
2021/05/28 01:16:24;;;;;;;12.18;9.90;;;;;;;8.34;79.25;102498.63;693362;28;1018;-59
2021/05/28 01:16:44;;;;;;;12.17;9.07;;;;;;;8.34;79.34;102501.25;693606;28;834;-59
2021/05/28 01:17:07;;;;;;;12.18;9.20;;;;;;;8.33;79.11;102494.25;693707;28;892;-60
2021/05/28 01:17:28;;;;;;;13.23;9.80;;;;;;;8.30;79.26;102504.78;693557;28;1018;-59
2021/05/28 01:17:50;;;;;;;11.93;9.20;;;;;;;8.27;79.38;102494.28;693605;28;972;-60
2021/05/28 01:18:14;;;;;;;13.30;9.70;;;;;;;8.26;79.76;102493.41;693293;28;1359;-59
2021/05/28 01:18:34;;;;;;;13.35;10.20;;;;;;;8.26;79.79;102497.81;692958;28;1054;-60
2021/05/28 01:18:55;;;;;;;13.87;10.30;;;;;;;8.28;79.67;102501.28;693492;28;1038;-60
2021/05/28 01:19:15;;;;;;;12.90;9.85;;;;;;;8.28;79.70;102496.03;693391;28;823;-61
2021/05/28 01:19:36;;;;;;;13.17;9.80;;;;;;;8.24;79.48;102500.41;693546;28;1053;-60
2021/05/28 01:19:56;;;;;;;13.67;10.07;;;;;;;8.26;79.44;102497.81;693176;28;1004;-60
2021/05/28 01:20:16;;;;;;;14.33;10.30;;;;;;;8.27;79.62;102494.28;693725;28;1038;-61
2021/05/28 01:20:36;;;;;;;15.13;10.83;;;;;;;8.26;79.39;102492.53;693049;28;1347;-62
2021/05/28 01:20:57;;;;;;;13.70;10.23;;;;;;;8.25;79.42;102502.16;693547;28;883;-60
2021/05/28 01:21:18;;;;;;;13.17;9.93;;;;;;;8.28;79.33;102511.78;693561;28;867;-61
2021/05/28 01:21:40;;;;;;;13.68;9.90;;;;;;;8.30;79.11;102494.28;693871;28;978;-61
2021/05/28 01:22:05;;;;;;;14.00;10.27;;;;;;;8.28;79.34;102503.91;693557;28;982;-60
2021/05/28 01:22:25;;;;;;;13.80;10.10;;;;;;;8.23;79.59;102496.06;693836;28;1002;-61
2021/05/28 01:22:47;;;;;;;13.10;9.93;;;;;;;8.22;79.73;102498.69;693650;28;1018;-60
2021/05/28 01:23:10;;;;;;;13.57;10.05;;;;;;;8.21;79.68;102499.56;693714;28;895;-61
2021/05/28 01:23:31;;;;;;;14.05;10.50;;;;;;;8.18;79.74;102491.69;693673;28;959;-61
2021/05/28 01:23:51;;;;;;;14.23;10.55;;;;;;;8.15;79.77;102505.72;693657;28;1968;-61
2021/05/28 01:24:12;;;;;;;13.53;10.20;;;;;;;8.19;79.79;102506.56;693595;28;1389;-61
2021/05/28 01:24:32;;;;;;;13.82;10.45;;;;;;;8.21;79.67;102504.81;693452;28;1542;-60
2021/05/28 01:24:55;;;;;;;12.87;10.20;;;;;;;8.25;79.65;102501.28;693803;28;902;-61
2021/05/28 01:25:16;;;;;;;12.30;10.25;;;;;;;8.18;79.38;102503.06;693177;28;1159;-60
2021/05/28 01:25:36;;;;;;;12.57;10.10;;;;;;;8.18;79.95;102503.06;693397;28;923;-61
2021/05/28 01:25:56;;;;;;;12.80;9.80;;;;;;;8.17;79.63;102503.09;693405;28;985;-61
2021/05/28 01:26:16;;;;;;;14.33;10.00;;;;;;;8.14;79.58;102503.09;693484;28;863;-61
2021/05/28 01:26:37;;;;;;;14.80;10.38;;;;;;;8.14;79.60;102503.09;693726;28;852;-61
2021/05/28 01:26:58;;;;;;;13.60;10.13;;;;;;;8.12;79.55;102503.13;693521;28;993;-62
2021/05/28 01:27:19;;;;;;;13.88;10.48;;;;;;;8.13;79.56;102501.38;693617;28;871;-61
2021/05/28 01:27:42;;;;;;;13.03;10.40;;;;;;;8.14;79.61;102493.47;693769;28;1443;-60
2021/05/28 01:28:02;;;;;;;13.07;10.32;;;;;;;8.15;79.90;102504.84;693897;28;879;-62
2021/05/28 01:28:23;;;;;;;13.80;10.43;;;;;;;8.15;79.94;102504.84;693455;28;947;-61
2021/05/28 01:28:43;;;;;;;13.13;10.27;;;;;;;8.17;79.76;102503.09;693730;28;889;-61
2021/05/28 01:29:03;;;;;;;12.35;9.70;;;;;;;8.12;80.14;102496.97;693525;28;1578;-60
2021/05/28 01:29:27;;;;;;;12.90;10.47;;;;;;;8.10;79.85;102502.25;693945;28;828;-60
2021/05/28 01:29:50;;;;;;;13.20;10.20;;;;;;;8.07;80.11;102497.88;693808;28;828;-60
2021/05/28 01:30:12;;;;;;;12.93;10.27;;;;;;;8.05;80.00;102504.91;693638;28;827;-61
2021/05/28 01:30:34;;;;;;;13.35;10.48;;;;;;;8.02;80.44;102499.66;693361;28;1268;-61
2021/05/28 01:30:58;;;;;;;12.80;9.88;;;;;;;7.99;80.50;102497.06;693491;28;979;-60
2021/05/28 01:31:18;;;;;;;12.48;10.18;;;;;;;7.97;80.33;102496.19;693357;28;831;-60
2021/05/28 01:31:38;;;;;;;14.57;10.30;;;;;;;7.96;80.64;102504.94;693550;28;871;-61
2021/05/28 01:31:59;;;;;;;15.00;10.43;;;;;;;7.94;80.87;102500.56;693443;28;860;-60
2021/05/28 01:32:22;;;;;;;14.40;10.73;;;;;;;7.96;80.80;102499.69;693488;28;1061;-60
2021/05/28 01:32:44;;;;;;;13.23;10.32;;;;;;;7.94;80.66;102501.44;693440;28;956;-60
2021/05/28 01:33:05;;;;;;;12.32;10.00;;;;;;;7.92;80.72;102495.34;693459;28;915;-61
2021/05/28 01:33:26;;;;;;;13.60;10.23;;;;;;;7.90;81.00;102498.84;693461;28;950;-60
2021/05/28 01:33:50;;;;;;;13.68;10.30;;;;;;;7.90;80.86;102499.72;693447;28;1060;-60
2021/05/28 01:34:10;;;;;;;14.77;10.55;;;;;;;7.92;81.15;102494.47;693310;28;1193;-61
2021/05/28 01:34:30;;;;;;;13.35;10.10;;;;;;;7.93;80.86;102497.06;693161;28;1630;-60
2021/05/28 01:34:51;;;;;;;12.57;10.07;;;;;;;7.91;81.12;102501.44;693559;28;887;-60
2021/05/28 01:35:13;;;;;;;13.30;9.83;;;;;;;7.94;80.87;102500.56;693470;28;896;-60
2021/05/28 01:35:34;;;;;;;12.98;10.20;;;;;;;7.96;80.84;102494.44;693384;28;882;-60
2021/05/28 01:35:57;;;;;;;12.65;10.15;;;;;;;7.97;81.03;102490.94;693293;28;1059;-60
2021/05/28 01:36:20;;;;;;;13.10;10.20;;;;;;;7.95;80.64;102497.97;693240;28;901;-61
2021/05/28 01:36:40;;;;;;;13.30;10.52;;;;;;;7.96;80.93;102493.56;693221;28;832;-60
2021/05/28 01:37:01;;;;;;;14.53;11.07;;;;;;;7.93;80.74;102497.06;693583;28;1103;-60
2021/05/28 01:37:21;;;;;;;15.13;11.30;;;;;;;7.95;80.84;102497.97;693400;28;1507;-60
2021/05/28 01:37:43;;;;;;;14.03;9.90;;;;;;;7.97;80.72;102498.81;693849;28;1006;-61
2021/05/28 01:38:05;;;;;;;13.30;10.30;;;;;;;7.98;80.61;102504.91;693708;28;1591;-60
2021/05/28 01:38:26;;;;;;;13.15;10.35;;;;;;;7.93;80.87;102498.84;693390;28;820;-60
2021/05/28 01:38:46;;;;;;;13.43;10.50;;;;;;;7.92;80.38;102497.09;693680;28;840;-60
2021/05/28 01:39:07;;;;;;;13.40;10.53;;;;;;;7.92;80.71;102497.97;693721;28;862;-60
2021/05/28 01:39:27;;;;;;;13.97;10.57;;;;;;;7.93;80.69;102497.06;690859;28;1384;-60
2021/05/28 01:39:50;;;;;;;13.60;10.25;;;;;;;7.96;80.85;102498.81;691613;28;883;-60
2021/05/28 01:40:15;;;;;;;13.70;10.20;;;;;;;7.93;80.36;102497.06;693625;28;862;-60
2021/05/28 01:40:35;;;;;;;15.48;10.52;;;;;;;7.92;80.72;102503.22;693794;28;828;-59
2021/05/28 01:40:55;;;;;;;16.92;10.82;;;;;;;7.89;80.72;102500.59;693607;28;855;-60
2021/05/28 01:41:16;;;;;;;13.77;10.43;;;;;;;7.90;80.80;102498.84;693776;28;943;-60
2021/05/28 01:41:36;;;;;;;12.50;10.10;;;;;;;7.91;80.72;102501.44;693920;28;808;-60
2021/05/28 01:41:57;;;;;;;12.40;10.50;;;;;;;7.88;80.80;102501.50;693973;28;873;-60
2021/05/28 01:42:17;;;;;;;12.32;10.23;;;;;;;7.89;80.91;102499.72;694035;28;1006;-60
2021/05/28 01:42:38;;;;;;;13.93;10.50;;;;;;;7.90;80.67;102498.84;693896;28;871;-60
2021/05/28 01:42:58;;;;;;;15.20;10.95;;;;;;;7.87;80.59;102504.97;693862;28;939;-60
2021/05/28 01:43:19;;;;;;;13.88;10.88;;;;;;;7.81;80.76;102491.88;693873;28;939;-59
2021/05/28 01:43:39;;;;;;;12.67;10.40;;;;;;;7.84;80.84;102490.13;693793;28;1902;-60